createdAt,value
2017-08-11T00:00:52.069Z,35.60
2017-08-11T00:01:52.063Z,37.30
2017-08-11T00:02:52.055Z,38.40
2017-08-11T00:03:52.048Z,38.30
2017-08-11T00:04:52.043Z,37.60
2017-08-11T00:05:52.034Z,37.00
2017-08-11T00:06:52.029Z,39.00
2017-08-11T00:07:52.028Z,39.10
2017-08-11T00:08:52.016Z,37.10
2017-08-11T00:09:52.013Z,39.60
2017-08-11T00:10:52.008Z,39.60
2017-08-11T00:11:51.999Z,40.00
2017-08-11T00:12:51.989Z,39.40
2017-08-11T00:13:51.983Z,39.40
2017-08-11T00:14:51.974Z,38.50
2017-08-11T00:15:51.974Z,36.60
2017-08-11T00:16:51.958Z,36.00
2017-08-11T00:17:51.951Z,35.30
2017-08-11T00:18:51.945Z,35.60
2017-08-11T00:19:51.939Z,37.70
2017-08-11T00:20:51.929Z,35.10
2017-08-11T00:21:51.923Z,35.90
2017-08-11T00:22:51.914Z,35.40
2017-08-11T00:23:51.912Z,36.30
2017-08-11T00:24:51.897Z,36.60
2017-08-11T00:25:51.888Z,40.80
2017-08-11T00:26:51.882Z,41.30
2017-08-11T00:27:51.874Z,39.60
2017-08-11T00:28:51.868Z,38.60
2017-08-11T00:29:51.861Z,40.80
2017-08-11T00:30:51.856Z,39.00
2017-08-11T00:31:51.856Z,39.80
2017-08-11T00:32:51.846Z,38.70
2017-08-11T00:33:51.841Z,36.80
2017-08-11T00:34:51.832Z,36.90
2017-08-11T00:35:51.825Z,35.60
2017-08-11T00:36:51.819Z,34.30
2017-08-11T00:37:51.811Z,33.50
2017-08-11T00:38:51.807Z,33.70
2017-08-11T00:39:51.804Z,31.90
2017-08-11T00:40:52.094Z,30.30
2017-08-11T00:41:51.790Z,30.80
2017-08-11T00:42:51.781Z,28.40
2017-08-11T00:43:51.776Z,27.60
2017-08-11T00:44:51.768Z,26.50
2017-08-11T00:45:51.765Z,26.20
2017-08-11T00:46:51.760Z,24.20
2017-08-11T00:47:51.750Z,24.70
2017-08-11T00:48:51.736Z,23.00
2017-08-11T00:49:51.729Z,22.80
2017-08-11T00:50:51.725Z,20.60
2017-08-11T00:51:51.720Z,20.10
2017-08-11T00:52:51.712Z,21.00
2017-08-11T00:53:51.708Z,19.60
2017-08-11T00:54:51.699Z,20.20
2017-08-11T00:55:51.688Z,19.40
2017-08-11T00:56:51.683Z,20.90
2017-08-11T00:57:51.674Z,21.30
2017-08-11T00:58:51.670Z,20.80
2017-08-11T00:59:51.661Z,24.70
2017-08-11T01:00:51.655Z,19.90
2017-08-11T01:01:51.645Z,18.70
2017-08-11T01:02:51.641Z,19.50
2017-08-11T01:03:51.639Z,19.20
2017-08-11T01:04:51.629Z,19.80
2017-08-11T01:05:51.624Z,19.90
2017-08-11T01:06:51.616Z,18.70
2017-08-11T01:07:51.610Z,18.70
2017-08-11T01:08:51.604Z,19.10
2017-08-11T01:09:51.594Z,18.80
2017-08-11T01:10:51.591Z,20.00
2017-08-11T01:11:51.580Z,20.00
2017-08-11T01:12:51.570Z,20.00
2017-08-11T01:13:51.564Z,21.00
2017-08-11T01:14:51.555Z,19.50
2017-08-11T01:15:51.555Z,20.50
2017-08-11T01:16:51.543Z,21.30
2017-08-11T01:17:51.537Z,21.60
2017-08-11T01:18:51.528Z,19.60
2017-08-11T01:19:51.526Z,19.30
2017-08-11T01:20:51.520Z,19.90
2017-08-11T01:21:51.512Z,21.60
2017-08-11T01:22:51.507Z,21.00
2017-08-11T01:23:51.500Z,20.90
2017-08-11T01:24:51.491Z,20.50
2017-08-11T01:25:51.486Z,19.20
2017-08-11T01:26:51.477Z,19.00
2017-08-11T01:27:51.467Z,19.70
2017-08-11T01:28:51.462Z,19.10
2017-08-11T01:29:51.458Z,20.70
2017-08-11T01:30:51.448Z,19.90
2017-08-11T01:31:51.439Z,20.60
2017-08-11T01:32:51.433Z,19.50
2017-08-11T01:33:51.425Z,19.60
2017-08-11T01:34:51.420Z,19.40
2017-08-11T01:35:51.418Z,21.10
2017-08-11T01:36:51.408Z,22.00
2017-08-11T01:37:51.403Z,20.30
2017-08-11T01:38:51.393Z,20.00
2017-08-11T01:39:51.388Z,20.20
2017-08-11T01:40:51.382Z,21.50
2017-08-11T01:41:51.373Z,22.50
2017-08-11T01:42:51.368Z,22.10
2017-08-11T01:43:51.357Z,23.10
2017-08-11T01:44:51.348Z,21.90
2017-08-11T01:45:51.343Z,22.10
2017-08-11T01:46:51.334Z,20.60
2017-08-11T01:47:51.330Z,23.20
2017-08-11T01:48:51.319Z,24.50
2017-08-11T01:49:51.315Z,25.20
2017-08-11T01:50:51.306Z,27.40
2017-08-11T01:51:51.302Z,30.00
2017-08-11T01:52:51.298Z,29.20
2017-08-11T01:53:51.289Z,32.80
2017-08-11T01:54:51.285Z,32.90
2017-08-11T01:55:51.274Z,35.00
2017-08-11T01:56:51.266Z,35.70
2017-08-11T01:57:51.259Z,37.00
2017-08-11T01:58:51.250Z,37.40
2017-08-11T01:59:51.246Z,39.20
2017-08-11T02:00:51.242Z,40.40
2017-08-11T02:01:51.233Z,42.60
2017-08-11T02:02:51.228Z,42.30
2017-08-11T02:03:51.219Z,42.10
2017-08-11T02:04:51.213Z,42.60
2017-08-11T02:05:51.205Z,42.10
2017-08-11T02:06:51.200Z,43.50
2017-08-11T02:07:51.189Z,44.20
2017-08-11T02:08:51.178Z,46.80
2017-08-11T02:09:51.174Z,45.70
2017-08-11T02:10:51.175Z,43.00
2017-08-11T02:11:51.159Z,41.90
2017-08-11T02:12:51.453Z,44.30
2017-08-11T02:13:51.144Z,44.50
2017-08-11T02:14:51.139Z,43.10
2017-08-11T02:15:51.136Z,44.50
2017-08-11T02:16:51.126Z,45.20
2017-08-11T02:17:51.122Z,47.70
2017-08-11T02:18:51.113Z,47.20
2017-08-11T02:19:51.108Z,48.10
2017-08-11T02:20:51.097Z,48.30
2017-08-11T02:21:51.093Z,48.20
2017-08-11T02:22:51.084Z,47.90
2017-08-11T02:23:51.073Z,47.80
2017-08-11T02:24:51.068Z,49.10
2017-08-11T02:25:51.059Z,50.00
2017-08-11T02:26:51.054Z,50.00
2017-08-11T02:27:51.047Z,48.90
2017-08-11T02:28:51.037Z,50.50
2017-08-11T02:29:51.032Z,50.60
2017-08-11T02:30:51.024Z,51.90
2017-08-11T02:31:51.020Z,51.60
2017-08-11T02:32:51.022Z,54.40
2017-08-11T02:33:51.006Z,54.20
2017-08-11T02:34:51.001Z,54.30
2017-08-11T02:35:50.993Z,53.20
2017-08-11T02:36:50.987Z,53.10
2017-08-11T02:37:50.978Z,53.20
2017-08-11T02:38:50.975Z,53.50
2017-08-11T02:39:50.967Z,54.20
2017-08-11T02:40:50.952Z,53.60
2017-08-11T02:41:50.949Z,55.60
2017-08-11T02:42:50.939Z,52.50
2017-08-11T02:43:50.934Z,54.30
2017-08-11T02:44:50.927Z,53.10
2017-08-11T02:45:50.918Z,52.90
2017-08-11T02:46:50.914Z,52.30
2017-08-11T02:47:50.912Z,51.80
2017-08-11T02:48:50.902Z,51.90
2017-08-11T02:49:50.896Z,50.30
2017-08-11T02:50:50.893Z,48.90
2017-08-11T02:51:50.883Z,48.40
2017-08-11T02:52:50.873Z,47.50
2017-08-11T02:53:50.868Z,48.80
2017-08-11T02:54:50.858Z,47.20
2017-08-11T02:55:50.849Z,46.80
2017-08-11T02:56:50.842Z,45.60
2017-08-11T02:57:50.833Z,47.10
2017-08-11T02:58:50.828Z,46.20
2017-08-11T02:59:50.820Z,47.50
2017-08-11T03:00:50.814Z,45.00
2017-08-11T03:01:50.805Z,44.30
2017-08-11T03:02:50.801Z,45.20
2017-08-11T03:03:50.798Z,43.90
2017-08-11T03:04:50.788Z,45.40
2017-08-11T03:05:50.788Z,45.00
2017-08-11T03:06:50.775Z,43.70
2017-08-11T03:07:50.770Z,42.50
2017-08-11T03:08:50.760Z,43.70
2017-08-11T03:09:50.755Z,43.30
2017-08-11T03:10:50.747Z,42.30
2017-08-11T03:11:50.736Z,44.50
2017-08-11T03:12:50.729Z,45.30
2017-08-11T03:13:50.721Z,43.90
2017-08-11T03:14:50.717Z,44.90
2017-08-11T03:15:50.709Z,48.20
2017-08-11T03:16:50.702Z,51.60
2017-08-11T03:17:50.694Z,50.40
2017-08-11T03:18:50.686Z,52.90
2017-08-11T03:19:50.683Z,48.70
2017-08-11T03:20:50.676Z,50.80
2017-08-11T03:21:50.671Z,49.80
2017-08-11T03:22:50.663Z,50.60
2017-08-11T03:23:50.653Z,50.60
2017-08-11T03:24:50.647Z,51.30
2017-08-11T03:25:50.638Z,52.60
2017-08-11T03:26:50.633Z,51.90
2017-08-11T03:27:50.621Z,49.50
2017-08-11T03:28:50.611Z,50.70
2017-08-11T03:29:50.608Z,49.90
2017-08-11T03:30:50.599Z,50.20
2017-08-11T03:31:50.592Z,48.30
2017-08-11T03:32:50.584Z,49.50
2017-08-11T03:33:50.575Z,49.60
2017-08-11T03:34:50.571Z,49.40
2017-08-11T03:35:50.568Z,45.40
2017-08-11T03:36:50.556Z,43.40
2017-08-11T03:37:50.552Z,42.50
2017-08-11T03:38:50.542Z,42.80
2017-08-11T03:39:50.837Z,41.40
2017-08-11T03:40:50.526Z,40.00
2017-08-11T03:41:50.522Z,41.10
2017-08-11T03:42:50.513Z,38.80
2017-08-11T03:43:50.500Z,38.20
2017-08-11T03:44:50.493Z,38.30
2017-08-11T03:45:50.785Z,38.60
2017-08-11T03:46:50.480Z,36.40
2017-08-11T03:47:50.473Z,36.50
2017-08-11T03:48:50.462Z,34.90
2017-08-11T03:49:50.457Z,34.30
2017-08-11T03:50:50.447Z,34.50
2017-08-11T03:51:50.445Z,34.90
2017-08-11T03:52:50.438Z,35.70
2017-08-11T03:53:50.429Z,36.40
2017-08-11T03:54:50.423Z,34.50
2017-08-11T03:55:50.414Z,35.10
2017-08-11T03:56:50.408Z,33.50
2017-08-11T03:57:50.397Z,35.80
2017-08-11T03:58:50.392Z,34.20
2017-08-11T03:59:50.380Z,31.50
2017-08-11T04:00:50.371Z,33.20
2017-08-11T04:01:50.365Z,34.20
2017-08-11T04:02:50.357Z,34.30
2017-08-11T04:03:50.353Z,34.10
2017-08-11T04:04:50.347Z,32.20
2017-08-11T04:05:50.338Z,34.40
2017-08-11T04:06:50.332Z,35.00
2017-08-11T04:07:50.320Z,32.30
2017-08-11T04:08:50.310Z,35.70
2017-08-11T04:09:50.311Z,32.40
2017-08-11T04:10:50.296Z,32.00
2017-08-11T04:11:50.289Z,33.20
2017-08-11T04:12:50.281Z,31.60
2017-08-11T04:13:50.275Z,34.00
2017-08-11T04:14:50.266Z,32.20
2017-08-11T04:15:50.262Z,33.00
2017-08-11T04:16:50.262Z,33.70
2017-08-11T04:17:50.247Z,34.70
2017-08-11T04:18:50.241Z,33.70
2017-08-11T04:19:50.234Z,33.20
2017-08-11T04:20:50.224Z,33.10
2017-08-11T04:21:50.218Z,32.30
2017-08-11T04:22:50.210Z,32.00
2017-08-11T04:23:50.198Z,32.00
2017-08-11T04:24:50.192Z,31.80
2017-08-11T04:25:50.183Z,34.40
2017-08-11T04:26:50.174Z,33.10
2017-08-11T04:27:50.168Z,30.60
2017-08-11T04:28:50.164Z,32.70
2017-08-11T04:29:50.154Z,33.10
2017-08-11T04:30:50.147Z,31.10
2017-08-11T04:31:50.144Z,34.30
2017-08-11T04:32:50.133Z,34.50
2017-08-11T04:33:50.127Z,34.10
2017-08-11T04:34:50.120Z,32.80
2017-08-11T04:35:50.112Z,32.60
2017-08-11T04:36:50.104Z,31.40
2017-08-11T04:37:50.094Z,32.20
2017-08-11T04:38:50.090Z,32.30
2017-08-11T04:39:50.079Z,34.40
2017-08-11T04:40:50.068Z,33.70
2017-08-11T04:41:50.062Z,32.00
2017-08-11T04:42:50.054Z,30.70
2017-08-11T04:43:50.050Z,30.50
2017-08-11T04:44:50.038Z,31.90
2017-08-11T04:45:50.033Z,31.10
2017-08-11T04:46:50.026Z,31.30
2017-08-11T04:47:50.020Z,29.50
2017-08-11T04:48:50.014Z,30.30
2017-08-11T04:49:50.004Z,30.90
2017-08-11T04:50:50.000Z,29.30
2017-08-11T04:51:49.992Z,27.60
2017-08-11T04:52:49.981Z,26.80
2017-08-11T04:53:49.976Z,27.10
2017-08-11T04:54:49.968Z,25.20
2017-08-11T04:55:49.957Z,27.30
2017-08-11T04:56:49.949Z,25.70
2017-08-11T04:57:49.941Z,25.80
2017-08-11T04:58:49.936Z,27.50
2017-08-11T04:59:49.926Z,26.60
2017-08-11T05:00:49.920Z,26.60
2017-08-11T05:01:49.911Z,27.00
2017-08-11T05:02:49.905Z,27.50
2017-08-11T05:03:49.903Z,26.80
2017-08-11T05:04:49.915Z,27.90
2017-08-11T05:05:49.888Z,26.90
2017-08-11T05:06:49.879Z,26.80
2017-08-11T05:07:49.867Z,28.70
2017-08-11T05:08:49.861Z,27.60
2017-08-11T05:09:49.851Z,25.90
2017-08-11T05:10:49.847Z,25.80
2017-08-11T05:11:49.844Z,23.70
2017-08-11T05:12:49.833Z,25.20
2017-08-11T05:13:49.829Z,24.10
2017-08-11T05:14:49.819Z,23.60
2017-08-11T05:15:49.814Z,24.30
2017-08-11T05:16:49.803Z,24.00
2017-08-11T05:17:49.799Z,24.70
2017-08-11T05:18:49.790Z,24.20
2017-08-11T05:19:49.778Z,23.30
2017-08-11T05:20:49.772Z,22.20
2017-08-11T05:21:49.763Z,21.40
2017-08-11T05:22:49.757Z,19.40
2017-08-11T05:23:49.751Z,19.70
2017-08-11T05:24:49.740Z,19.80
2017-08-11T05:25:49.735Z,18.30
2017-08-11T05:26:49.728Z,17.70
2017-08-11T05:27:49.723Z,17.70
2017-08-11T05:28:49.717Z,16.80
2017-08-11T05:29:49.707Z,16.20
2017-08-11T05:30:49.701Z,15.20
2017-08-11T05:31:49.696Z,15.50
2017-08-11T05:32:49.686Z,15.00
2017-08-11T05:33:49.678Z,14.50
2017-08-11T05:34:49.673Z,14.70
2017-08-11T05:35:49.660Z,13.50
2017-08-11T05:36:49.651Z,13.50
2017-08-11T05:37:49.645Z,13.90
2017-08-11T05:38:49.636Z,15.20
2017-08-11T05:39:49.629Z,14.50
2017-08-11T05:40:49.622Z,15.60
2017-08-11T05:41:49.613Z,15.60
2017-08-11T05:42:49.606Z,14.70
2017-08-11T05:43:49.608Z,14.50
2017-08-11T05:44:49.595Z,13.80
2017-08-11T05:45:49.588Z,14.30
2017-08-11T05:46:49.579Z,15.80
2017-08-11T05:47:49.574Z,15.60
2017-08-11T05:48:49.570Z,16.10
2017-08-11T05:49:49.563Z,16.00
2017-08-11T05:50:49.550Z,16.50
2017-08-11T05:51:49.539Z,16.00
2017-08-11T05:52:49.533Z,16.10
2017-08-11T05:53:49.524Z,18.10
2017-08-11T05:54:49.525Z,16.60
2017-08-11T05:55:49.511Z,16.60
2017-08-11T05:56:49.501Z,17.80
2017-08-11T05:57:49.497Z,17.40
2017-08-11T05:58:49.488Z,18.00
2017-08-11T05:59:49.485Z,17.80
2017-08-11T06:00:49.479Z,17.80
2017-08-11T06:01:49.470Z,18.20
2017-08-11T06:02:49.467Z,18.30
2017-08-11T06:03:49.456Z,18.70
2017-08-11T06:04:49.450Z,18.20
2017-08-11T06:05:49.442Z,18.60
2017-08-11T06:06:49.436Z,19.70
2017-08-11T06:07:49.426Z,18.10
2017-08-11T06:08:49.415Z,18.20
2017-08-11T06:09:49.411Z,17.20
2017-08-11T06:10:49.403Z,17.30
2017-08-11T06:11:49.400Z,18.40
2017-08-11T06:12:49.394Z,17.80
2017-08-11T06:13:49.388Z,18.50
2017-08-11T06:14:49.382Z,18.30
2017-08-11T06:15:49.371Z,17.80
2017-08-11T06:16:49.359Z,17.80
2017-08-11T06:17:49.359Z,20.90
2017-08-11T06:18:49.347Z,20.60
2017-08-11T06:19:49.343Z,20.80
2017-08-11T06:20:49.334Z,20.10
2017-08-11T06:21:49.329Z,20.70
2017-08-11T06:22:49.319Z,22.90
2017-08-11T06:23:49.318Z,22.60
2017-08-11T06:24:49.315Z,24.30
2017-08-11T06:25:49.309Z,22.20
2017-08-11T06:26:49.300Z,20.40
2017-08-11T06:27:49.298Z,21.70
2017-08-11T06:28:49.284Z,23.50
2017-08-11T06:29:49.279Z,23.50
2017-08-11T06:30:49.270Z,19.90
2017-08-11T06:31:49.260Z,21.20
2017-08-11T06:32:49.259Z,19.10
2017-08-11T06:33:49.246Z,21.50
2017-08-11T06:34:49.243Z,20.10
2017-08-11T06:35:49.234Z,19.70
2017-08-11T06:36:49.230Z,17.80
2017-08-11T06:37:49.220Z,20.00
2017-08-11T06:38:49.217Z,18.70
2017-08-11T06:39:49.215Z,17.80
2017-08-11T06:40:49.210Z,19.20
2017-08-11T06:41:49.201Z,17.80
2017-08-11T06:42:49.196Z,18.10
2017-08-11T06:43:49.188Z,16.60
2017-08-11T06:44:49.182Z,19.50
2017-08-11T06:45:49.175Z,17.50
2017-08-11T06:46:49.173Z,19.80
2017-08-11T06:47:49.164Z,20.00
2017-08-11T06:48:49.152Z,18.10
2017-08-11T06:49:49.149Z,18.70
2017-08-11T06:50:49.141Z,17.90
2017-08-11T06:51:49.137Z,17.50
2017-08-11T06:52:49.151Z,18.60
2017-08-11T06:53:49.126Z,19.30
2017-08-11T06:54:49.117Z,20.00
2017-08-11T06:55:49.116Z,18.40
2017-08-11T06:56:49.111Z,18.90
2017-08-11T06:57:49.104Z,17.90
2017-08-11T06:58:49.100Z,18.60
2017-08-11T06:59:49.094Z,18.50
2017-08-11T07:00:49.086Z,19.70
2017-08-11T07:01:49.084Z,18.50
2017-08-11T07:02:49.074Z,17.50
2017-08-11T07:03:49.066Z,17.70
2017-08-11T07:04:49.062Z,19.30
2017-08-11T07:05:49.055Z,20.10
2017-08-11T07:06:49.049Z,19.10
2017-08-11T07:07:49.047Z,18.80
2017-08-11T07:08:49.039Z,20.00
2017-08-11T07:09:49.031Z,20.50
2017-08-11T07:10:49.026Z,21.80
2017-08-11T07:11:49.026Z,18.90
2017-08-11T07:12:49.016Z,21.00
2017-08-11T07:13:49.013Z,20.30
2017-08-11T07:14:49.006Z,19.40
2017-08-11T07:15:48.998Z,17.10
2017-08-11T07:16:48.990Z,17.30
2017-08-11T07:17:48.986Z,16.70
2017-08-11T07:18:48.979Z,16.70
2017-08-11T07:19:48.979Z,16.10
2017-08-11T07:20:48.974Z,16.00
2017-08-11T07:21:48.965Z,15.80
2017-08-11T07:22:48.963Z,15.10
2017-08-11T07:23:48.956Z,13.80
2017-08-11T07:24:48.951Z,14.50
2017-08-11T07:25:48.944Z,13.10
2017-08-11T07:26:48.941Z,13.70
2017-08-11T07:27:48.933Z,13.90
2017-08-11T07:28:48.925Z,13.60
2017-08-11T07:29:48.921Z,12.60
2017-08-11T07:30:48.913Z,14.70
2017-08-11T07:31:48.933Z,12.80
2017-08-11T07:32:48.906Z,12.10
2017-08-11T07:33:48.901Z,17.50
2017-08-11T07:34:48.896Z,12.00
2017-08-11T07:35:48.896Z,11.80
2017-08-11T07:36:48.887Z,10.80
2017-08-11T07:37:48.886Z,12.60
2017-08-11T07:38:48.881Z,14.90
2017-08-11T07:39:48.876Z,11.80
2017-08-11T07:40:48.870Z,15.00
2017-08-11T07:41:48.868Z,13.00
2017-08-11T07:42:48.889Z,12.70
2017-08-11T07:43:48.853Z,10.70
2017-08-11T07:44:48.850Z,14.70
2017-08-11T07:45:48.844Z,14.60
2017-08-11T07:46:48.843Z,13.70
2017-08-11T07:47:48.838Z,12.60
2017-08-11T07:48:48.830Z,14.30
2017-08-11T07:49:48.829Z,14.20
2017-08-11T07:50:48.823Z,14.40
2017-08-11T07:51:48.834Z,14.10
2017-08-11T07:52:48.821Z,15.60
2017-08-11T07:53:48.816Z,15.90
2017-08-11T07:54:48.813Z,14.60
2017-08-11T07:55:48.813Z,15.00
2017-08-11T07:56:48.805Z,16.30
2017-08-11T07:57:48.799Z,18.30
2017-08-11T07:58:48.798Z,17.00
2017-08-11T07:59:48.790Z,16.00
2017-08-11T08:00:48.784Z,19.00
2017-08-11T08:01:48.783Z,15.30
2017-08-11T08:02:48.778Z,14.20
2017-08-11T08:03:48.774Z,14.20
2017-08-11T08:04:48.774Z,14.90
2017-08-11T08:05:48.768Z,15.20
2017-08-11T08:06:48.767Z,17.70
2017-08-11T08:07:48.769Z,18.40
2017-08-11T08:08:48.778Z,15.50
2017-08-11T08:09:48.782Z,16.40
2017-08-11T08:10:49.079Z,16.90
2017-08-11T08:11:48.754Z,15.50
2017-08-11T08:12:48.750Z,16.50
2017-08-11T08:13:48.749Z,15.80
2017-08-11T08:14:48.744Z,15.60
2017-08-11T08:15:48.738Z,17.50
2017-08-11T08:16:48.736Z,15.90
2017-08-11T08:17:48.731Z,17.20
2017-08-11T08:18:48.730Z,18.60
2017-08-11T08:19:48.730Z,19.50
2017-08-11T08:20:48.726Z,17.50
2017-08-11T08:21:48.731Z,18.30
2017-08-11T08:22:48.719Z,17.70
2017-08-11T08:23:48.717Z,18.00
2017-08-11T08:24:48.709Z,17.40
2017-08-11T08:25:48.716Z,17.70
2017-08-11T08:26:48.703Z,17.60
2017-08-11T08:27:48.698Z,19.00
2017-08-11T08:28:48.783Z,17.30
2017-08-11T08:29:48.690Z,19.60
2017-08-11T08:30:48.689Z,20.00
2017-08-11T08:31:48.700Z,19.30
2017-08-11T08:32:48.689Z,18.60
2017-08-11T08:33:48.683Z,18.20
2017-08-11T08:34:48.679Z,18.80
2017-08-11T08:35:48.676Z,21.90
2017-08-11T08:36:48.674Z,22.30
2017-08-11T08:37:48.669Z,20.20
2017-08-11T08:38:48.675Z,21.80
2017-08-11T08:39:48.662Z,20.70
2017-08-11T08:40:48.656Z,21.20
2017-08-11T08:41:48.654Z,24.10
2017-08-11T08:42:48.684Z,21.90
2017-08-11T08:43:48.652Z,23.10
2017-08-11T08:44:48.648Z,24.30
2017-08-11T08:45:48.642Z,21.00
2017-08-11T08:46:48.639Z,21.70
2017-08-11T08:47:48.639Z,23.20
2017-08-11T08:48:48.637Z,21.70
2017-08-11T08:49:48.631Z,20.70
2017-08-11T08:50:48.631Z,23.10
2017-08-11T08:51:48.627Z,22.30
2017-08-11T08:52:48.622Z,22.90
2017-08-11T08:53:48.620Z,21.30
2017-08-11T08:54:48.615Z,23.10
2017-08-11T08:55:48.608Z,21.20
2017-08-11T08:56:48.608Z,20.20
2017-08-11T08:57:48.601Z,20.50
2017-08-11T08:58:48.600Z,20.90
2017-08-11T08:59:48.596Z,20.60
2017-08-11T09:00:48.592Z,19.20
2017-08-11T09:01:48.587Z,21.10
2017-08-11T09:02:48.587Z,21.00
2017-08-11T09:03:48.589Z,20.00
2017-08-11T09:04:48.582Z,16.90
2017-08-11T09:05:48.583Z,19.90
2017-08-11T09:06:48.578Z,17.60
2017-08-11T09:07:48.576Z,17.30
2017-08-11T09:08:48.574Z,16.90
2017-08-11T09:09:48.570Z,16.20
2017-08-11T09:10:48.872Z,17.60
2017-08-11T09:11:48.563Z,15.90
2017-08-11T09:12:48.559Z,15.20
2017-08-11T09:13:48.562Z,15.40
2017-08-11T09:14:48.558Z,14.70
2017-08-11T09:15:48.563Z,15.80
2017-08-11T09:16:48.555Z,14.60
2017-08-11T09:17:48.556Z,15.80
2017-08-11T09:18:48.555Z,13.70
2017-08-11T09:19:48.558Z,14.70
2017-08-11T09:20:48.558Z,13.10
2017-08-11T09:21:48.557Z,14.10
2017-08-11T09:22:48.559Z,14.20
2017-08-11T09:23:48.554Z,14.80
2017-08-11T09:24:48.551Z,14.20
2017-08-11T09:25:48.555Z,14.40
2017-08-11T09:26:48.554Z,16.90
2017-08-11T09:27:48.558Z,14.30
2017-08-11T09:28:48.563Z,14.70
2017-08-11T09:29:48.559Z,10.50
2017-08-11T09:30:48.562Z,11.80
2017-08-11T09:31:48.560Z,11.50
2017-08-11T09:32:48.562Z,13.80
2017-08-11T09:33:48.560Z,12.20
2017-08-11T09:34:48.564Z,10.40
2017-08-11T09:35:48.560Z,12.40
2017-08-11T09:36:48.559Z,12.70
2017-08-11T09:37:48.562Z,14.40
2017-08-11T09:38:48.560Z,12.40
2017-08-11T09:39:48.562Z,13.40
2017-08-11T09:40:48.564Z,13.30
2017-08-11T09:41:48.563Z,11.80
2017-08-11T09:42:48.567Z,16.40
2017-08-11T09:43:48.571Z,11.00
2017-08-11T09:44:48.569Z,11.40
2017-08-11T09:45:48.571Z,13.10
2017-08-11T09:46:48.570Z,14.10
2017-08-11T09:47:48.574Z,13.20
2017-08-11T09:48:48.572Z,15.20
2017-08-11T09:49:48.574Z,13.10
2017-08-11T09:50:48.571Z,14.30
2017-08-11T09:51:48.573Z,12.30
2017-08-11T09:52:48.571Z,14.30
2017-08-11T09:53:48.568Z,14.90
2017-08-11T09:54:48.572Z,14.80
2017-08-11T09:55:48.573Z,14.00
2017-08-11T09:56:48.570Z,13.30
2017-08-11T09:57:48.572Z,15.10
2017-08-11T09:58:48.572Z,14.90
2017-08-11T09:59:48.576Z,13.60
2017-08-11T10:00:48.578Z,13.60
2017-08-11T10:01:48.576Z,16.10
2017-08-11T10:02:48.577Z,13.60
2017-08-11T10:03:48.578Z,16.50
2017-08-11T10:04:48.597Z,13.60
2017-08-11T10:05:48.578Z,16.80
2017-08-11T10:06:48.581Z,15.70
2017-08-11T10:07:48.574Z,15.60
2017-08-11T10:08:48.573Z,12.30
2017-08-11T10:09:48.577Z,14.50
2017-08-11T10:10:48.576Z,14.00
2017-08-11T10:11:48.578Z,13.80
2017-08-11T10:12:48.583Z,15.20
2017-08-11T10:13:48.584Z,13.80
2017-08-11T10:14:48.579Z,16.30
2017-08-11T10:15:48.584Z,16.30
2017-08-11T10:16:48.582Z,16.70
2017-08-11T10:17:48.584Z,19.20
2017-08-11T10:18:48.593Z,20.90
2017-08-11T10:19:48.586Z,16.40
2017-08-11T10:20:48.583Z,17.20
2017-08-11T10:21:48.585Z,17.80
2017-08-11T10:22:48.584Z,18.10
2017-08-11T10:23:48.579Z,22.10
2017-08-11T10:24:48.579Z,22.00
2017-08-11T10:25:48.578Z,22.30
2017-08-11T10:26:48.578Z,18.70
2017-08-11T10:27:48.582Z,20.70
2017-08-11T10:28:48.578Z,20.60
2017-08-11T10:29:48.580Z,20.60
2017-08-11T10:30:48.576Z,19.20
2017-08-11T10:31:48.571Z,18.70
2017-08-11T10:32:48.570Z,16.30
2017-08-11T10:33:48.567Z,19.30
2017-08-11T10:34:48.567Z,17.40
2017-08-11T10:35:48.564Z,17.30
2017-08-11T10:36:48.563Z,13.70
2017-08-11T10:37:48.559Z,14.10
2017-08-11T10:38:48.559Z,15.90
2017-08-11T10:39:48.560Z,14.00
2017-08-11T10:40:48.555Z,15.60
2017-08-11T10:41:48.555Z,14.80
2017-08-11T10:42:48.550Z,11.10
2017-08-11T10:43:48.548Z,12.90
2017-08-11T10:44:48.547Z,12.30
2017-08-11T10:45:48.543Z,11.30
2017-08-11T10:46:48.542Z,10.90
2017-08-11T10:47:48.536Z,12.20
2017-08-11T10:48:48.528Z,11.80
2017-08-11T10:49:48.529Z,15.20
2017-08-11T10:50:48.524Z,13.30
2017-08-11T10:51:48.523Z,11.90
2017-08-11T10:52:48.518Z,11.80
2017-08-11T10:53:48.517Z,10.90
2017-08-11T10:54:48.513Z,14.70
2017-08-11T10:55:48.514Z,12.90
2017-08-11T10:56:48.512Z,14.00
2017-08-11T10:57:48.510Z,10.90
2017-08-11T10:58:48.505Z,15.00
2017-08-11T10:59:48.503Z,12.60
2017-08-11T11:00:48.497Z,11.60
2017-08-11T11:01:48.496Z,12.10
2017-08-11T11:02:48.491Z,13.10
2017-08-11T11:03:48.483Z,11.80
2017-08-11T11:04:48.480Z,14.00
2017-08-11T11:05:48.476Z,15.40
2017-08-11T11:06:48.477Z,12.40
2017-08-11T11:07:48.480Z,11.70
2017-08-11T11:08:48.467Z,11.80
2017-08-11T11:09:48.463Z,12.40
2017-08-11T11:10:48.462Z,12.30
2017-08-11T11:11:48.462Z,13.50
2017-08-11T11:12:48.457Z,12.30
2017-08-11T11:13:48.454Z,10.70
2017-08-11T11:14:48.448Z,11.90
2017-08-11T11:15:48.445Z,11.60
2017-08-11T11:16:48.443Z,11.10
2017-08-11T11:17:48.438Z,15.20
2017-08-11T11:18:48.435Z,14.00
2017-08-11T11:19:48.429Z,13.60
2017-08-11T11:20:48.421Z,14.90
2017-08-11T11:21:48.423Z,11.20
2017-08-11T11:22:48.416Z,12.80
2017-08-11T11:23:48.413Z,12.60
2017-08-11T11:24:48.407Z,13.00
2017-08-11T11:25:48.405Z,13.90
2017-08-11T11:26:48.399Z,13.00
2017-08-11T11:27:48.400Z,10.70
2017-08-11T11:28:48.397Z,11.80
2017-08-11T11:29:48.392Z,12.50
2017-08-11T11:30:48.390Z,13.40
2017-08-11T11:31:48.384Z,10.40
2017-08-11T11:32:48.380Z,13.00
2017-08-11T11:33:48.375Z,9.00
2017-08-11T11:34:48.373Z,10.10
2017-08-11T11:35:48.365Z,11.70
2017-08-11T11:36:48.358Z,11.50
2017-08-11T11:37:48.356Z,10.80
2017-08-11T11:38:48.349Z,8.40
2017-08-11T11:39:48.348Z,13.40
2017-08-11T11:40:48.341Z,10.50
2017-08-11T11:41:48.338Z,10.20
2017-08-11T11:42:48.333Z,9.00
2017-08-11T11:43:48.333Z,11.40
2017-08-11T11:44:48.329Z,10.60
2017-08-11T11:45:48.324Z,10.40
2017-08-11T11:46:48.322Z,10.90
2017-08-11T11:47:48.317Z,9.80
2017-08-11T11:48:48.309Z,12.80
2017-08-11T11:49:48.308Z,9.10
2017-08-11T11:50:48.303Z,11.50
2017-08-11T11:51:48.293Z,9.30
2017-08-11T11:52:48.292Z,8.20
2017-08-11T11:53:48.286Z,11.40
2017-08-11T11:54:48.285Z,9.30
2017-08-11T11:55:48.278Z,11.50
2017-08-11T11:56:48.274Z,7.90
2017-08-11T11:57:48.270Z,13.80
2017-08-11T11:58:48.268Z,11.60
2017-08-11T11:59:48.271Z,9.80
2017-08-11T12:00:48.260Z,10.60
2017-08-11T12:01:48.260Z,8.60
2017-08-11T12:02:48.254Z,8.30
2017-08-11T12:03:48.253Z,7.80
2017-08-11T12:04:48.251Z,12.20
2017-08-11T12:05:48.242Z,8.90
2017-08-11T12:06:48.239Z,8.80
2017-08-11T12:07:48.234Z,7.20
2017-08-11T12:08:48.225Z,9.90
2017-08-11T12:09:48.224Z,7.20
2017-08-11T12:10:48.217Z,8.50
2017-08-11T12:11:48.216Z,8.00
2017-08-11T12:12:48.210Z,9.00
2017-08-11T12:13:48.210Z,6.90
2017-08-11T12:14:48.202Z,8.00
2017-08-11T12:15:48.204Z,8.10
2017-08-11T12:16:48.199Z,10.30
2017-08-11T12:17:48.194Z,10.80
2017-08-11T12:18:48.192Z,6.80
2017-08-11T12:19:48.188Z,8.80
2017-08-11T12:20:48.181Z,11.20
2017-08-11T12:21:48.179Z,10.30
2017-08-11T12:22:48.172Z,9.00
2017-08-11T12:23:48.165Z,10.40
2017-08-11T12:24:48.162Z,6.70
2017-08-11T12:25:48.155Z,9.10
2017-08-11T12:26:48.153Z,8.60
2017-08-11T12:27:48.147Z,9.50
2017-08-11T12:28:48.144Z,10.60
2017-08-11T12:29:48.139Z,10.20
2017-08-11T12:30:48.136Z,9.30
2017-08-11T12:31:48.136Z,9.10
2017-08-11T12:32:48.130Z,9.20
2017-08-11T12:33:48.126Z,9.30
2017-08-11T12:34:48.122Z,8.50
2017-08-11T12:35:48.113Z,8.00
2017-08-11T12:36:48.108Z,7.60
2017-08-11T12:37:48.102Z,9.10
2017-08-11T12:38:48.100Z,10.20
2017-08-11T12:39:48.102Z,8.40
2017-08-11T12:40:48.093Z,7.60
2017-08-11T12:41:48.093Z,9.40
2017-08-11T12:42:48.086Z,8.30
2017-08-11T12:43:48.084Z,6.70
2017-08-11T12:44:48.079Z,8.10
2017-08-11T12:45:48.075Z,8.60
2017-08-11T12:46:48.069Z,12.50
2017-08-11T12:47:48.062Z,9.40
2017-08-11T12:48:48.059Z,7.30
2017-08-11T12:49:48.052Z,8.70
2017-08-11T12:50:48.056Z,8.50
2017-08-11T12:51:48.048Z,10.20
2017-08-11T12:52:48.042Z,8.40
2017-08-11T12:53:48.038Z,7.40
2017-08-11T12:54:48.034Z,9.50